Time;durP1;ratioP1;P1;durP2;ratioP2;P2;SDS_P1;SDS_P2;PMS_P1;PMS_P2;Temp;Humidity;BMP_temperature;BMP_pressure;BME280_temperature;BME280_humidity;BME280_pressure;Samples;Min_cycle;Max_cycle;Signal;HPM_P1;HPM_P2
2023/07/30 00:00:40;;;;;;;8.70;6.00;;;;;;;;;;5013717;28;20459;-72
2023/07/30 00:03:08;;;;;;;13.10;5.40;;;;;;;;;;5014092;28;20482;-72
2023/07/30 00:05:36;;;;;;;7.20;6.13;;;;;;;;;;5013056;28;20529;-72
2023/07/30 00:08:03;;;;;;;8.03;5.47;;;;;;;;;;5013817;28;20538;-72
2023/07/30 00:10:30;;;;;;;5.97;5.40;;;;;;;;;;5013652;28;20443;-72
2023/07/30 00:12:57;;;;;;;14.00;6.90;;;;;;;;;;5013766;28;20469;-72
2023/07/30 00:15:24;;;;;;;6.67;5.70;;;;;;;;;;5014113;28;20449;-72
2023/07/30 00:17:52;;;;;;;5.90;5.43;;;;;;;;;;5013999;28;20452;-72
2023/07/30 00:20:21;;;;;;;7.10;5.97;;;;;;;;;;5014042;28;20870;-72
2023/07/30 00:22:48;;;;;;;6.90;6.20;;;;;;;;;;5013321;28;20454;-72
2023/07/30 00:25:15;;;;;;;6.27;5.33;;;;;;;;;;5013511;28;20493;-72
2023/07/30 00:27:42;;;;;;;9.90;6.50;;;;;;;;;;5013343;28;20453;-72
2023/07/30 00:30:10;;;;;;;7.20;6.17;;;;;;;;;;5013691;28;20798;-72
2023/07/30 00:32:40;;;;;;;7.70;6.53;;;;;;;;;;5013592;28;20541;-72
2023/07/30 00:35:08;;;;;;;8.43;6.40;;;;;;;;;;5013626;28;20488;-72
2023/07/30 00:37:37;;;;;;;7.90;6.27;;;;;;;;;;5013362;28;20451;-72
2023/07/30 00:40:05;;;;;;;7.17;6.43;;;;;;;;;;5013564;28;20449;-72
2023/07/30 00:42:32;;;;;;;6.93;5.80;;;;;;;;;;5013693;28;20446;-72
2023/07/30 00:44:59;;;;;;;9.60;7.53;;;;;;;;;;5013220;28;20996;-72
2023/07/30 00:47:27;;;;;;;13.80;5.93;;;;;;;;;;5013999;28;20457;-72
2023/07/30 00:49:54;;;;;;;9.77;6.13;;;;;;;;;;5013789;28;20465;-72
2023/07/30 00:52:22;;;;;;;12.00;5.87;;;;;;;;;;5013694;28;20445;-72
2023/07/30 00:54:51;;;;;;;8.60;5.83;;;;;;;;;;5013190;28;20492;-72
2023/07/30 00:57:19;;;;;;;8.43;5.40;;;;;;;;;;5013017;28;20448;-72
2023/07/30 00:59:47;;;;;;;8.47;5.50;;;;;;;;;;5013220;28;20449;-72
2023/07/30 01:02:14;;;;;;;6.93;5.50;;;;;;;;;;5013004;28;20978;-72
2023/07/30 01:04:42;;;;;;;10.23;7.27;;;;;;;;;;5013210;28;20475;-72
2023/07/30 01:07:09;;;;;;;8.73;6.13;;;;;;;;;;5012996;28;20548;-72
2023/07/30 01:09:37;;;;;;;10.77;6.23;;;;;;;;;;5012932;28;20940;-72
2023/07/30 01:12:06;;;;;;;10.73;5.93;;;;;;;;;;5013207;28;20792;-72
2023/07/30 01:14:34;;;;;;;7.27;6.10;;;;;;;;;;5012821;28;20641;-72
2023/07/30 01:17:01;;;;;;;7.40;6.30;;;;;;;;;;5015157;28;20441;-72
2023/07/30 01:19:28;;;;;;;13.10;6.43;;;;;;;;;;5017156;28;20937;-72
2023/07/30 01:21:57;;;;;;;10.63;6.03;;;;;;;;;;5017643;28;20507;-72
2023/07/30 01:24:24;;;;;;;7.47;5.80;;;;;;;;;;5016917;28;20486;-72
2023/07/30 01:26:53;;;;;;;6.07;5.40;;;;;;;;;;5016995;28;20855;-72
2023/07/30 01:29:23;;;;;;;8.60;6.40;;;;;;;;;;5017239;28;20450;-72
2023/07/30 01:31:53;;;;;;;8.60;6.37;;;;;;;;;;5016955;28;20448;-73
2023/07/30 01:34:20;;;;;;;7.20;6.37;;;;;;;;;;5017260;28;20437;-72
2023/07/30 01:36:48;;;;;;;11.00;6.63;;;;;;;;;;5016919;28;20453;-72
2023/07/30 01:39:17;;;;;;;11.07;6.03;;;;;;;;;;5017097;28;20469;-72
2023/07/30 01:41:44;;;;;;;8.80;7.17;;;;;;;;;;5016881;28;20444;-72
2023/07/30 01:44:11;;;;;;;11.37;7.03;;;;;;;;;;5016655;28;20477;-72
2023/07/30 01:46:38;;;;;;;8.90;6.40;;;;;;;;;;5017190;28;20557;-72
2023/07/30 01:49:06;;;;;;;10.87;6.20;;;;;;;;;;5016902;28;20452;-72
2023/07/30 01:51:33;;;;;;;7.87;5.90;;;;;;;;;;5016774;28;20457;-72
2023/07/30 01:54:00;;;;;;;7.03;6.33;;;;;;;;;;5016486;28;20462;-73
2023/07/30 01:56:29;;;;;;;10.83;6.03;;;;;;;;;;5016529;28;20900;-72
2023/07/30 01:58:56;;;;;;;9.97;6.87;;;;;;;;;;5016476;28;20456;-73
2023/07/30 02:01:23;;;;;;;7.57;6.07;;;;;;;;;;5016288;28;20459;-73
2023/07/30 02:03:50;;;;;;;6.40;5.50;;;;;;;;;;5016168;28;20485;-74
2023/07/30 02:06:17;;;;;;;7.27;6.00;;;;;;;;;;5016033;28;20966;-73
2023/07/30 02:08:45;;;;;;;7.00;5.30;;;;;;;;;;5016210;28;20491;-73
2023/07/30 02:11:12;;;;;;;7.97;6.30;;;;;;;;;;5016155;28;20923;-73
2023/07/30 02:13:42;;;;;;;7.60;6.00;;;;;;;;;;5016394;28;20547;-72
2023/07/30 02:16:09;;;;;;;13.33;6.00;;;;;;;;;;5016071;28;20449;-72
2023/07/30 02:18:36;;;;;;;6.40;4.37;;;;;;;;;;5016147;28;20446;-72
2023/07/30 02:21:04;;;;;;;9.57;5.30;;;;;;;;;;5016397;28;20456;-73
2023/07/30 02:23:31;;;;;;;9.20;5.33;;;;;;;;;;5016015;28;20479;-73
2023/07/30 02:25:58;;;;;;;9.07;5.50;;;;;;;;;;5015721;28;20477;-73
2023/07/30 02:28:25;;;;;;;5.97;4.47;;;;;;;;;;5015015;28;20875;-73
2023/07/30 02:30:54;;;;;;;10.00;4.73;;;;;;;;;;5015924;28;20443;-72
2023/07/30 02:33:21;;;;;;;8.17;4.80;;;;;;;;;;5015383;28;20437;-72
2023/07/30 02:35:48;;;;;;;6.80;4.80;;;;;;;;;;5015493;28;20454;-73
2023/07/30 02:38:15;;;;;;;8.07;4.40;;;;;;;;;;5015803;28;20453;-72
2023/07/30 02:40:43;;;;;;;5.23;4.20;;;;;;;;;;5015681;28;20809;-72
2023/07/30 02:43:10;;;;;;;10.60;5.20;;;;;;;;;;5015735;28;20446;-72
2023/07/30 02:45:37;;;;;;;8.10;3.83;;;;;;;;;;5015507;28;20481;-72
2023/07/30 02:48:06;;;;;;;7.80;3.77;;;;;;;;;;5015465;28;20442;-73
2023/07/30 02:50:33;;;;;;;4.37;3.97;;;;;;;;;;5015448;28;20526;-72
2023/07/30 02:53:00;;;;;;;6.87;4.40;;;;;;;;;;5015403;28;20457;-72
2023/07/30 02:55:28;;;;;;;6.50;4.30;;;;;;;;;;5015213;28;20443;-72
2023/07/30 02:57:55;;;;;;;8.60;4.40;;;;;;;;;;5015039;28;20450;-72
2023/07/30 03:00:22;;;;;;;8.50;4.60;;;;;;;;;;5014947;28;20447;-72
2023/07/30 03:02:49;;;;;;;11.33;4.33;;;;;;;;;;5015514;28;20447;-71
2023/07/30 03:05:18;;;;;;;8.93;4.67;;;;;;;;;;5015048;28;20483;-72
2023/07/30 03:07:45;;;;;;;8.53;4.43;;;;;;;;;;5014907;28;20481;-72
2023/07/30 03:10:12;;;;;;;10.63;4.60;;;;;;;;;;5015187;28;20439;-72
2023/07/30 03:12:39;;;;;;;5.20;3.70;;;;;;;;;;5015439;28;20457;-73
2023/07/30 03:15:07;;;;;;;10.90;4.00;;;;;;;;;;5014720;28;20863;-72
2023/07/30 03:17:34;;;;;;;8.80;4.30;;;;;;;;;;5015081;28;20454;-72
2023/07/30 03:20:01;;;;;;;7.83;4.20;;;;;;;;;;5014911;28;20441;-73
2023/07/30 03:22:30;;;;;;;6.73;4.30;;;;;;;;;;5014666;28;20529;-72
2023/07/30 03:24:57;;;;;;;9.20;5.50;;;;;;;;;;5014799;28;20530;-73
2023/07/30 03:27:24;;;;;;;5.57;4.00;;;;;;;;;;5014838;28;20949;-72
2023/07/30 03:29:51;;;;;;;7.77;4.47;;;;;;;;;;5015359;28;20473;-73
2023/07/30 03:32:18;;;;;;;10.30;4.20;;;;;;;;;;5014660;28;20452;-73
2023/07/30 03:34:46;;;;;;;6.13;4.13;;;;;;;;;;5014746;28;20529;-73
2023/07/30 03:37:13;;;;;;;16.03;4.00;;;;;;;;;;5014658;28;20445;-72
2023/07/30 03:39:41;;;;;;;16.47;4.70;;;;;;;;;;5014131;28;20458;-72
2023/07/30 03:42:08;;;;;;;9.17;4.10;;;;;;;;;;5014495;28;20455;-72
2023/07/30 03:44:36;;;;;;;9.40;5.00;;;;;;;;;;5014884;28;20471;-71
2023/07/30 03:47:03;;;;;;;6.77;4.60;;;;;;;;;;5014080;28;20455;-72
2023/07/30 03:49:30;;;;;;;6.27;3.90;;;;;;;;;;5013321;28;20454;-72
2023/07/30 03:51:57;;;;;;;4.90;3.53;;;;;;;;;;5013465;28;21018;-73
2023/07/30 03:54:25;;;;;;;5.13;3.77;;;;;;;;;;5014181;28;20816;-72
2023/07/30 03:56:53;;;;;;;7.63;3.73;;;;;;;;;;5019582;28;20442;-72
2023/07/30 03:59:20;;;;;;;14.50;4.77;;;;;;;;;;5033609;28;20999;-72
2023/07/30 04:01:47;;;;;;;14.10;5.03;;;;;;;;;;5033676;28;20437;-71
2023/07/30 04:04:15;;;;;;;9.23;4.10;;;;;;;;;;5033314;28;20478;-71
2023/07/30 04:06:42;;;;;;;7.37;4.40;;;;;;;;;;5033369;28;20531;-72
2023/07/30 04:09:09;;;;;;;9.73;4.40;;;;;;;;;;5033889;28;20450;-72
2023/07/30 04:11:36;;;;;;;4.50;3.97;;;;;;;;;;5033838;28;20445;-72
2023/07/30 04:14:07;;;;;;;7.13;4.40;;;;;;;;;;5033923;28;20442;-73
2023/07/30 04:16:35;;;;;;;11.37;5.03;;;;;;;;;;5033598;28;20442;-72
2023/07/30 04:19:02;;;;;;;5.80;4.07;;;;;;;;;;5022951;28;20457;-73
2023/07/30 04:21:29;;;;;;;13.37;4.20;;;;;;;;;;5013473;28;20911;-72
2023/07/30 04:23:56;;;;;;;13.07;4.73;;;;;;;;;;5013274;28;20474;-72
2023/07/30 04:26:23;;;;;;;10.17;6.60;;;;;;;;;;5013490;28;20481;-73
2023/07/30 04:28:51;;;;;;;7.33;3.93;;;;;;;;;;5013321;28;20875;-72
2023/07/30 04:31:19;;;;;;;5.90;3.50;;;;;;;;;;5013526;28;20473;-72
2023/07/30 04:33:46;;;;;;;10.90;4.60;;;;;;;;;;5013581;28;20446;-72
2023/07/30 04:36:14;;;;;;;5.43;3.80;;;;;;;;;;5013086;28;20445;-72
2023/07/30 04:38:41;;;;;;;9.13;3.97;;;;;;;;;;5013476;28;20442;-72
2023/07/30 04:41:08;;;;;;;7.63;3.37;;;;;;;;;;5012981;28;20965;-73
2023/07/30 04:43:35;;;;;;;5.60;4.33;;;;;;;;;;5013621;28;20529;-73
2023/07/30 04:46:02;;;;;;;8.20;4.17;;;;;;;;;;5012941;28;20489;-73
2023/07/30 04:48:31;;;;;;;11.93;3.97;;;;;;;;;;5012912;28;20446;-72
2023/07/30 04:50:58;;;;;;;7.63;4.10;;;;;;;;;;5013330;28;20442;-72
2023/07/30 04:53:25;;;;;;;9.53;4.17;;;;;;;;;;5012824;28;20441;-72
2023/07/30 04:55:57;;;;;;;10.73;4.10;;;;;;;;;;5012721;28;20457;-73
2023/07/30 04:58:24;;;;;;;10.00;4.30;;;;;;;;;;5012823;28;20781;-72
2023/07/30 05:00:51;;;;;;;9.90;3.80;;;;;;;;;;5012747;28;20452;-73
2023/07/30 05:03:18;;;;;;;8.87;3.90;;;;;;;;;;5012777;28;20532;-72
2023/07/30 05:05:47;;;;;;;4.57;3.97;;;;;;;;;;5013102;28;20487;-73
2023/07/30 05:08:14;;;;;;;10.23;4.33;;;;;;;;;;5012527;28;20490;-73
2023/07/30 05:10:42;;;;;;;6.47;4.97;;;;;;;;;;5013211;28;20438;-72
2023/07/30 05:13:09;;;;;;;10.27;4.60;;;;;;;;;;5012892;28;20537;-73
2023/07/30 05:15:36;;;;;;;7.00;3.73;;;;;;;;;;5013059;28;20935;-72
2023/07/30 05:18:03;;;;;;;13.17;4.03;;;;;;;;;;5012395;28;20443;-72
2023/07/30 05:20:31;;;;;;;5.70;3.70;;;;;;;;;;5013217;28;20779;-72
2023/07/30 05:23:00;;;;;;;11.50;4.60;;;;;;;;;;5013359;28;20804;-72
2023/07/30 05:25:27;;;;;;;12.13;4.63;;;;;;;;;;5012955;28;20493;-72
2023/07/30 05:27:54;;;;;;;6.90;3.97;;;;;;;;;;5013285;28;20450;-72
2023/07/30 05:30:21;;;;;;;12.80;5.80;;;;;;;;;;5013308;28;20436;-73
2023/07/30 05:32:49;;;;;;;13.17;5.80;;;;;;;;;;5013272;28;20452;-72
2023/07/30 05:35:16;;;;;;;12.50;6.20;;;;;;;;;;5012971;28;20937;-72
2023/07/30 05:37:43;;;;;;;10.90;6.47;;;;;;;;;;5013120;28;20448;-72
2023/07/30 05:40:12;;;;;;;13.10;6.10;;;;;;;;;;5013591;28;20445;-72
2023/07/30 05:42:39;;;;;;;9.00;6.37;;;;;;;;;;5012766;28;20468;-72
2023/07/30 05:45:07;;;;;;;13.40;6.50;;;;;;;;;;5013142;28;20566;-72
2023/07/30 05:47:35;;;;;;;21.10;7.57;;;;;;;;;;5012628;28;20500;-72
2023/07/30 05:50:03;;;;;;;7.10;6.10;;;;;;;;;;5012605;28;20958;-72
2023/07/30 05:52:30;;;;;;;15.73;7.63;;;;;;;;;;5012805;28;20868;-72
2023/07/30 05:54:57;;;;;;;16.70;7.00;;;;;;;;;;5012977;28;20450;-71
2023/07/30 05:57:26;;;;;;;15.90;7.33;;;;;;;;;;5011982;28;20462;-72
2023/07/30 05:59:53;;;;;;;15.93;6.77;;;;;;;;;;5012443;28;20521;-72
2023/07/30 06:02:20;;;;;;;14.00;7.03;;;;;;;;;;5013050;28;20463;-72
2023/07/30 06:04:48;;;;;;;14.90;7.63;;;;;;;;;;5016406;28;20506;-68
2023/07/30 06:07:16;;;;;;;13.63;8.00;;;;;;;;;;5016027;28;20460;-69
2023/07/30 06:09:43;;;;;;;13.90;8.23;;;;;;;;;;5015864;28;20945;-73
2023/07/30 06:12:10;;;;;;;17.17;9.13;;;;;;;;;;5016048;28;20439;-71
2023/07/30 06:14:38;;;;;;;16.83;9.30;;;;;;;;;;5016423;28;20448;-72
2023/07/30 06:17:06;;;;;;;18.90;8.80;;;;;;;;;;5015612;28;20965;-72
2023/07/30 06:19:33;;;;;;;13.73;9.07;;;;;;;;;;5015805;28;20881;-73
2023/07/30 06:22:00;;;;;;;19.13;9.23;;;;;;;;;;5015768;28;20453;-73
2023/07/30 06:24:28;;;;;;;15.43;9.83;;;;;;;;;;5016000;28;20446;-72
2023/07/30 06:26:55;;;;;;;14.10;9.50;;;;;;;;;;5016123;28;20458;-75
2023/07/30 06:29:22;;;;;;;15.47;10.13;;;;;;;;;;5016065;28;20546;-74
2023/07/30 06:31:50;;;;;;;19.10;9.87;;;;;;;;;;5015917;28;20449;-78
2023/07/30 06:34:18;;;;;;;17.40;10.47;;;;;;;;;;5016148;28;20796;-78
2023/07/30 06:36:45;;;;;;;20.10;10.90;;;;;;;;;;5016600;28;20454;-80
2023/07/30 06:39:12;;;;;;;15.30;10.00;;;;;;;;;;5015497;28;20435;-79
2023/07/30 06:41:39;;;;;;;23.13;10.33;;;;;;;;;;5015811;28;20474;-78
2023/07/30 06:44:06;;;;;;;22.27;11.47;;;;;;;;;;4995763;28;20793;-78
2023/07/30 06:46:34;;;;;;;20.10;10.90;;;;;;;;;;4995970;28;20489;-77
2023/07/30 06:49:02;;;;;;;14.90;10.63;;;;;;;;;;4996097;28;20453;-77
2023/07/30 06:51:30;;;;;;;18.03;10.80;;;;;;;;;;4996067;28;20443;-77
2023/07/30 06:53:57;;;;;;;17.70;10.27;;;;;;;;;;4995547;28;20440;-76
2023/07/30 06:56:25;;;;;;;21.37;11.23;;;;;;;;;;4995560;28;20602;-78
2023/07/30 06:58:52;;;;;;;26.57;10.07;;;;;;;;;;4995995;28;20450;-78
2023/07/30 07:01:19;;;;;;;16.50;11.57;;;;;;;;;;4995600;28;20933;-79
2023/07/30 07:03:46;;;;;;;19.17;10.80;;;;;;;;;;4995249;28;20779;-79
2023/07/30 07:06:15;;;;;;;23.27;12.33;;;;;;;;;;4995366;28;20515;-78
2023/07/30 07:08:42;;;;;;;19.63;11.43;;;;;;;;;;4995303;28;20525;-78
2023/07/30 07:11:09;;;;;;;20.93;10.90;;;;;;;;;;4995815;28;20440;-78
2023/07/30 07:13:37;;;;;;;23.50;10.97;;;;;;;;;;5011093;28;20461;-78
2023/07/30 07:16:04;;;;;;;19.07;9.67;;;;;;;;;;5014761;28;20799;-79
2023/07/30 07:18:32;;;;;;;18.73;11.00;;;;;;;;;;5014807;28;20458;-78
2023/07/30 07:20:59;;;;;;;16.67;10.53;;;;;;;;;;5014739;28;20453;-77
2023/07/30 07:23:27;;;;;;;19.30;9.60;;;;;;;;;;5014796;28;20442;-78
2023/07/30 07:25:55;;;;;;;22.87;10.87;;;;;;;;;;5014556;28;20855;-75
2023/07/30 07:28:22;;;;;;;14.90;10.13;;;;;;;;;;5014997;28;20537;-77
2023/07/30 07:30:49;;;;;;;28.80;11.30;;;;;;;;;;5014562;28;20453;-78
2023/07/30 07:33:17;;;;;;;21.93;10.73;;;;;;;;;;5014767;28;20450;-77
2023/07/30 07:35:44;;;;;;;20.03;10.83;;;;;;;;;;5014991;28;20543;-78
2023/07/30 07:38:11;;;;;;;22.87;12.83;;;;;;;;;;5014644;28;20448;-78
2023/07/30 07:40:40;;;;;;;17.30;11.40;;;;;;;;;;5014650;28;20450;-78
2023/07/30 07:43:07;;;;;;;18.43;10.97;;;;;;;;;;5014398;28;20457;-78
2023/07/30 07:45:34;;;;;;;23.83;10.10;;;;;;;;;;5014054;28;21023;-78
2023/07/30 07:48:02;;;;;;;17.33;11.67;;;;;;;;;;5014688;28;20449;-77
2023/07/30 07:50:29;;;;;;;24.17;10.40;;;;;;;;;;5014091;28;20457;-78
2023/07/30 07:52:56;;;;;;;22.90;11.07;;;;;;;;;;5014437;28;20533;-77
2023/07/30 07:55:23;;;;;;;22.33;10.43;;;;;;;;;;5013995;28;20899;-77
2023/07/30 07:57:52;;;;;;;14.93;9.50;;;;;;;;;;5014167;28;20458;-78
2023/07/30 08:00:19;;;;;;;17.67;9.37;;;;;;;;;;5013888;28;20443;-79
2023/07/30 08:02:46;;;;;;;17.27;9.20;;;;;;;;;;5013910;28;20450;-78
2023/07/30 08:05:14;;;;;;;16.27;9.33;;;;;;;;;;5014196;28;20806;-78
2023/07/30 08:07:42;;;;;;;19.10;9.00;;;;;;;;;;5013506;28;20451;-77
2023/07/30 08:10:10;;;;;;;22.80;10.73;;;;;;;;;;5013397;28;20457;-79
2023/07/30 08:12:38;;;;;;;24.23;11.17;;;;;;;;;;5013494;28;20539;-78
2023/07/30 08:15:07;;;;;;;18.63;9.70;;;;;;;;;;5014256;28;20442;-78
2023/07/30 08:17:34;;;;;;;16.70;9.10;;;;;;;;;;5013932;28;20453;-78
2023/07/30 08:20:01;;;;;;;12.70;8.53;;;;;;;;;;5014011;28;20446;-76
2023/07/30 08:22:28;;;;;;;20.53;10.30;;;;;;;;;;5014840;28;20445;-78
2023/07/30 08:24:56;;;;;;;15.70;9.33;;;;;;;;;;5015434;28;20511;-79
2023/07/30 08:27:23;;;;;;;13.90;9.43;;;;;;;;;;5014759;28;20545;-79
2023/07/30 08:29:50;;;;;;;13.57;8.50;;;;;;;;;;5013898;28;20444;-79
2023/07/30 08:32:18;;;;;;;29.23;10.33;;;;;;;;;;5015599;28;20447;-79
2023/07/30 08:34:46;;;;;;;14.03;9.47;;;;;;;;;;5018048;28;20929;-79
2023/07/30 08:37:13;;;;;;;19.50;10.83;;;;;;;;;;5016810;28;20511;-79
2023/07/30 08:39:40;;;;;;;18.63;9.00;;;;;;;;;;5014505;28;20541;-79
2023/07/30 08:42:07;;;;;;;15.60;9.70;;;;;;;;;;5013389;28;20487;-79
2023/07/30 08:44:34;;;;;;;18.87;8.90;;;;;;;;;;5013223;28;20938;-79
2023/07/30 08:47:02;;;;;;;14.00;9.53;;;;;;;;;;5013801;28;20502;-78
2023/07/30 08:49:32;;;;;;;21.57;10.53;;;;;;;;;;5013372;28;20447;-79
2023/07/30 08:52:00;;;;;;;20.80;9.40;;;;;;;;;;5013463;28;20435;-79
2023/07/30 08:54:28;;;;;;;22.90;9.77;;;;;;;;;;5013273;28;20445;-79
2023/07/30 08:56:56;;;;;;;13.30;9.43;;;;;;;;;;5013140;28;20459;-78
2023/07/30 08:59:24;;;;;;;18.10;9.20;;;;;;;;;;5013408;28;20861;-79
2023/07/30 09:01:52;;;;;;;21.97;9.97;;;;;;;;;;5013156;28;20860;-79
2023/07/30 09:04:20;;;;;;;14.03;9.17;;;;;;;;;;5013198;28;20786;-80
2023/07/30 09:06:51;;;;;;;18.30;8.77;;;;;;;;;;5012965;28;20517;-80
2023/07/30 09:09:18;;;;;;;18.40;9.27;;;;;;;;;;5013133;28;20461;-80
2023/07/30 09:11:52;;;;;;;24.83;8.77;;;;;;;;;;5012588;28;20544;-79
2023/07/30 09:14:21;;;;;;;15.70;8.27;;;;;;;;;;5013179;28;20978;-79
2023/07/30 09:16:48;;;;;;;15.20;7.23;;;;;;;;;;5013138;28;20497;-78
2023/07/30 09:19:18;;;;;;;23.73;7.70;;;;;;;;;;5014029;28;20450;-78
2023/07/30 09:21:45;;;;;;;18.13;6.97;;;;;;;;;;5013216;28;20451;-80
2023/07/30 09:24:24;;;;;;;16.33;7.57;;;;;;;;;;5013658;28;20478;-76
2023/07/30 09:26:51;;;;;;;13.47;7.03;;;;;;;;;;5012800;28;21016;-80
2023/07/30 09:29:18;;;;;;;11.30;6.90;;;;;;;;;;5013295;28;20475;-80
2023/07/30 09:31:49;;;;;;;14.20;7.00;;;;;;;;;;5012864;28;20449;-80
2023/07/30 09:34:18;;;;;;;10.00;6.70;;;;;;;;;;5013512;28;20465;-80
2023/07/30 09:36:45;;;;;;;17.30;7.20;;;;;;;;;;5012870;28;20928;-80
2023/07/30 09:39:16;;;;;;;11.43;6.60;;;;;;;;;;5016905;28;20792;-80
2023/07/30 09:41:45;;;;;;;10.30;6.80;;;;;;;;;;5016792;28;20427;-79
2023/07/30 09:44:12;;;;;;;9.70;8.07;;;;;;;;;;5016747;28;20921;-80
2023/07/30 09:46:44;;;;;;;13.43;7.57;;;;;;;;;;5017104;28;20488;-79
2023/07/30 09:49:12;;;;;;;13.43;9.10;;;;;;;;;;5016821;28;20426;-79
2023/07/30 09:51:39;;;;;;;13.07;7.73;;;;;;;;;;5016370;28;20462;-79
2023/07/30 09:54:08;;;;;;;12.40;7.90;;;;;;;;;;5016779;28;20443;-79
2023/07/30 09:56:35;;;;;;;15.87;7.93;;;;;;;;;;5016811;28;20482;-78
2023/07/30 09:59:04;;;;;;;9.13;7.83;;;;;;;;;;5016890;28;20442;-79
2023/07/30 10:01:32;;;;;;;13.23;7.30;;;;;;;;;;5016413;28;20446;-80
2023/07/30 10:03:59;;;;;;;11.87;7.27;;;;;;;;;;5016500;28;20958;-80
2023/07/30 10:06:28;;;;;;;16.77;6.73;;;;;;;;;;5016623;28;20483;-80
2023/07/30 10:08:58;;;;;;;10.87;6.50;;;;;;;;;;5016163;28;20439;-79
2023/07/30 10:11:26;;;;;;;11.83;6.40;;;;;;;;;;5016322;28;20439;-79
2023/07/30 10:13:53;;;;;;;10.23;5.13;;;;;;;;;;5016580;28;20471;-78
2023/07/30 10:16:26;;;;;;;13.23;5.50;;;;;;;;;;5016780;28;20454;-80
2023/07/30 10:18:58;;;;;;;12.67;4.50;;;;;;;;;;5018612;28;20435;-79
2023/07/30 10:21:26;;;;;;;6.27;4.77;;;;;;;;;;5017257;28;20428;-78
2023/07/30 10:23:59;;;;;;;9.50;4.60;;;;;;;;;;5017848;28;20512;-79
2023/07/30 10:26:29;;;;;;;10.07;4.93;;;;;;;;;;5016259;28;20491;-78
2023/07/30 10:29:11;;;;;;;8.67;4.13;;;;;;;;;;5016074;28;20490;-77
2023/07/30 10:31:43;;;;;;;6.93;4.27;;;;;;;;;;5015849;28;20432;-79
2023/07/30 10:34:10;;;;;;;6.80;3.83;;;;;;;;;;5015826;28;20446;-79
2023/07/30 10:36:42;;;;;;;8.30;4.00;;;;;;;;;;5015753;28;21017;-79
2023/07/30 10:39:13;;;;;;;9.53;3.60;;;;;;;;;;5015821;28;20757;-78
2023/07/30 10:41:41;;;;;;;5.03;2.93;;;;;;;;;;5016102;28;20445;-78
2023/07/30 10:44:08;;;;;;;6.10;3.60;;;;;;;;;;5015538;28;20958;-79
2023/07/30 10:46:35;;;;;;;5.30;2.80;;;;;;;;;;5016010;28;20475;-79
2023/07/30 10:49:06;;;;;;;6.67;3.10;;;;;;;;;;5014884;28;20454;-78
2023/07/30 10:51:33;;;;;;;8.30;3.80;;;;;;;;;;5017417;28;20462;-78
2023/07/30 10:54:01;;;;;;;5.90;2.87;;;;;;;;;;5018914;28;20440;-79
2023/07/30 10:56:28;;;;;;;4.00;2.90;;;;;;;;;;5018969;28;20546;-80
2023/07/30 10:58:55;;;;;;;5.40;3.27;;;;;;;;;;5015452;28;20955;-80
2023/07/30 11:01:26;;;;;;;9.07;3.30;;;;;;;;;;5015191;28;20482;-79
2023/07/30 11:03:54;;;;;;;7.73;3.33;;;;;;;;;;5015459;28;20444;-77
2023/07/30 11:06:26;;;;;;;5.67;2.40;;;;;;;;;;5015487;28;20479;-77
2023/07/30 11:08:53;;;;;;;5.53;2.37;;;;;;;;;;5015560;28;20443;-78
2023/07/30 11:11:20;;;;;;;14.13;2.40;;;;;;;;;;5014877;28;20896;-78
2023/07/30 11:13:48;;;;;;;3.93;2.20;;;;;;;;;;5015427;28;20451;-80
2023/07/30 11:16:15;;;;;;;5.53;2.50;;;;;;;;;;5015173;28;20448;-79
2023/07/30 11:18:43;;;;;;;8.90;2.93;;;;;;;;;;5015442;28;20514;-79
2023/07/30 11:21:11;;;;;;;8.73;3.23;;;;;;;;;;5015329;28;20514;-80
2023/07/30 11:23:41;;;;;;;9.60;2.97;;;;;;;;;;5015016;28;20450;-79
2023/07/30 11:26:09;;;;;;;10.47;2.70;;;;;;;;;;5015330;28;20514;-79
2023/07/30 11:28:37;;;;;;;9.63;2.27;;;;;;;;;;5014882;28;20443;-79
2023/07/30 11:31:05;;;;;;;6.10;2.50;;;;;;;;;;5014801;28;20973;-79
2023/07/30 11:33:32;;;;;;;7.13;2.80;;;;;;;;;;5014982;28;20470;-79
2023/07/30 11:36:01;;;;;;;8.40;2.57;;;;;;;;;;5015147;28;20534;-77
2023/07/30 11:38:29;;;;;;;6.70;2.70;;;;;;;;;;5015079;28;20805;-78
2023/07/30 11:40:58;;;;;;;12.90;2.40;;;;;;;;;;5014820;28;20525;-77
2023/07/30 11:43:25;;;;;;;7.03;3.10;;;;;;;;;;5014595;28;20943;-77
2023/07/30 11:46:08;;;;;;;5.37;3.27;;;;;;;;;;5014706;28;21035;-78
2023/07/30 11:48:35;;;;;;;2.90;2.20;;;;;;;;;;5014804;28;20534;-78
2023/07/30 11:51:02;;;;;;;5.67;2.87;;;;;;;;;;5014670;28;20994;-78
2023/07/30 11:53:44;;;;;;;13.60;4.10;;;;;;;;;;5014995;28;20450;-78
2023/07/30 11:56:17;;;;;;;7.20;3.20;;;;;;;;;;5014801;28;20439;-78
2023/07/30 11:58:45;;;;;;;6.47;3.07;;;;;;;;;;5014986;28;20485;-78
2023/07/30 12:01:12;;;;;;;6.70;2.70;;;;;;;;;;5014378;28;20450;-78
2023/07/30 12:03:40;;;;;;;15.97;3.60;;;;;;;;;;5014365;28;20959;-79
2023/07/30 12:06:08;;;;;;;11.10;2.97;;;;;;;;;;5014356;28;21016;-78
2023/07/30 12:08:36;;;;;;;4.90;2.40;;;;;;;;;;5014077;28;20562;-79
2023/07/30 12:11:04;;;;;;;6.33;2.37;;;;;;;;;;5014289;28;20453;-78
2023/07/30 12:13:33;;;;;;;4.87;2.97;;;;;;;;;;5014462;28;20451;-78
2023/07/30 12:16:01;;;;;;;9.17;2.73;;;;;;;;;;5014603;28;20522;-78
2023/07/30 12:18:29;;;;;;;8.80;2.90;;;;;;;;;;5014030;28;20450;-72
2023/07/30 12:20:57;;;;;;;7.27;3.07;;;;;;;;;;5014077;28;20919;-71
2023/07/30 12:23:25;;;;;;;7.77;3.60;;;;;;;;;;5014189;28;20451;-71
2023/07/30 12:25:53;;;;;;;10.00;3.10;;;;;;;;;;5013866;28;20473;-71
2023/07/30 12:28:20;;;;;;;11.23;3.53;;;;;;;;;;5013628;28;20525;-71
2023/07/30 12:30:49;;;;;;;9.10;3.60;;;;;;;;;;5013739;28;20479;-72
2023/07/30 12:33:16;;;;;;;10.20;4.27;;;;;;;;;;5014349;28;20446;-72
2023/07/30 12:35:43;;;;;;;12.23;4.03;;;;;;;;;;5014303;28;20897;-71
2023/07/30 12:38:11;;;;;;;6.10;3.23;;;;;;;;;;5014059;28;20447;-71
2023/07/30 12:40:38;;;;;;;8.10;3.20;;;;;;;;;;5014096;28;20450;-71
2023/07/30 12:43:05;;;;;;;13.00;3.20;;;;;;;;;;5013890;28;20437;-73
2023/07/30 12:45:33;;;;;;;5.23;2.57;;;;;;;;;;5013718;28;20501;-72
2023/07/30 12:48:02;;;;;;;2.30;2.10;;;;;;;;;;5013502;28;20471;-72
2023/07/30 12:50:29;;;;;;;8.53;2.43;;;;;;;;;;5014053;28;20448;-72
2023/07/30 12:52:56;;;;;;;4.30;2.13;;;;;;;;;;5013427;28;20443;-73
2023/07/30 12:55:23;;;;;;;5.80;2.10;;;;;;;;;;5033060;28;20449;-73
2023/07/30 12:57:50;;;;;;;4.03;1.80;;;;;;;;;;5033130;28;20518;-74
2023/07/30 13:00:18;;;;;;;3.80;2.10;;;;;;;;;;5033463;28;20512;-73
2023/07/30 13:02:45;;;;;;;2.93;1.90;;;;;;;;;;5033334;28;20522;-73
2023/07/30 13:05:15;;;;;;;1.80;1.50;;;;;;;;;;5033294;28;20790;-74
2023/07/30 13:07:42;;;;;;;2.60;1.77;;;;;;;;;;5033780;28;20481;-73
2023/07/30 13:10:10;;;;;;;3.23;1.87;;;;;;;;;;5033164;28;20527;-74
2023/07/30 13:12:37;;;;;;;4.83;2.00;;;;;;;;;;5032536;28;21012;-75
2023/07/30 13:15:05;;;;;;;1.83;1.67;;;;;;;;;;5032943;28;20547;-75
2023/07/30 13:17:32;;;;;;;2.30;1.60;;;;;;;;;;5032975;28;20490;-75
2023/07/30 13:20:00;;;;;;;3.77;1.90;;;;;;;;;;5033229;28;20444;-75
2023/07/30 13:22:28;;;;;;;4.10;2.13;;;;;;;;;;5032949;28;20452;-76
2023/07/30 13:24:55;;;;;;;6.00;2.00;;;;;;;;;;5032664;28;21017;-76
2023/07/30 13:27:23;;;;;;;5.27;2.20;;;;;;;;;;5033488;28;20482;-76
2023/07/30 13:29:50;;;;;;;8.57;2.47;;;;;;;;;;5032793;28;20459;-76
2023/07/30 13:32:18;;;;;;;3.10;1.73;;;;;;;;;;5032932;28;20446;-76
2023/07/30 13:34:45;;;;;;;3.07;2.00;;;;;;;;;;5032990;28;20764;-76
2023/07/30 13:37:13;;;;;;;2.90;1.90;;;;;;;;;;5033040;28;20453;-77
2023/07/30 13:39:42;;;;;;;7.63;2.80;;;;;;;;;;5032982;28;20538;-77
2023/07/30 13:42:09;;;;;;;4.20;2.27;;;;;;;;;;5033224;28;20451;-78
2023/07/30 13:44:36;;;;;;;4.77;2.47;;;;;;;;;;5032954;28;20522;-78
2023/07/30 13:47:04;;;;;;;4.30;2.70;;;;;;;;;;5032914;28;20452;-74
2023/07/30 13:49:31;;;;;;;4.03;2.17;;;;;;;;;;5033252;28;20447;-76
2023/07/30 13:51:58;;;;;;;5.77;2.20;;;;;;;;;;5033552;28;20524;-76
2023/07/30 13:54:25;;;;;;;7.20;2.83;;;;;;;;;;5033720;28;20485;-78
2023/07/30 13:56:54;;;;;;;4.20;2.47;;;;;;;;;;5033413;28;20931;-77
2023/07/30 13:59:22;;;;;;;6.00;2.77;;;;;;;;;;5032939;28;20442;-80
2023/07/30 14:01:49;;;;;;;2.80;1.77;;;;;;;;;;5032814;28;20468;-77
2023/07/30 14:04:17;;;;;;;4.23;2.40;;;;;;;;;;5032869;28;20453;-79
2023/07/30 14:06:45;;;;;;;2.10;1.90;;;;;;;;;;5032923;28;20443;-78
2023/07/30 14:09:12;;;;;;;4.00;2.47;;;;;;;;;;5032344;28;20578;-78
2023/07/30 14:11:42;;;;;;;7.80;2.37;;;;;;;;;;5032821;28;20938;-78
2023/07/30 14:14:11;;;;;;;5.50;2.40;;;;;;;;;;5032403;28;20430;-78
2023/07/30 14:16:38;;;;;;;3.23;2.00;;;;;;;;;;5032623;28;20443;-77
2023/07/30 14:19:05;;;;;;;3.37;2.20;;;;;;;;;;5031738;28;20456;-78
2023/07/30 14:21:32;;;;;;;8.13;2.67;;;;;;;;;;5032450;28;20443;-78
2023/07/30 14:24:00;;;;;;;2.80;1.80;;;;;;;;;;5032382;28;20451;-77
2023/07/30 14:26:27;;;;;;;2.90;2.20;;;;;;;;;;5036174;28;20568;-76
2023/07/30 14:28:54;;;;;;;2.67;2.00;;;;;;;;;;5035851;28;20474;-77
2023/07/30 14:31:22;;;;;;;5.47;2.00;;;;;;;;;;5035700;28;20438;-78
2023/07/30 14:33:50;;;;;;;4.43;2.03;;;;;;;;;;5033668;28;20439;-78
2023/07/30 14:36:17;;;;;;;6.07;2.40;;;;;;;;;;5015613;28;20452;-77
2023/07/30 14:38:44;;;;;;;8.33;2.80;;;;;;;;;;5015865;28;20970;-78